Time;durP1;ratioP1;P1;durP2;ratioP2;P2;SDS_P1;SDS_P2;PMS_P1;PMS_P2;Temp;Humidity;BMP_temperature;BMP_pressure;BME280_temperature;BME280_humidity;BME280_pressure;Samples;Min_cycle;Max_cycle;Signal;HPM_P1;HPM_P2
2022/02/17 00:00:09;;;;;;;18.48;12.20;;;;;;;3.75;76.02;100779.58;1722188;83;20932;-70
2022/02/17 00:02:42;;;;;;;14.90;12.07;;;;;;;3.75;76.04;100771.80;1721953;83;22007;-71
2022/02/17 00:05:10;;;;;;;17.82;12.40;;;;;;;3.76;76.09;100772.21;1721773;83;21644;-69
2022/02/17 00:07:38;;;;;;;20.80;12.35;;;;;;;3.78;76.15;100770.85;1721793;83;20979;-70
2022/02/17 00:10:07;;;;;;;22.35;12.63;;;;;;;3.77;76.20;100770.01;1721645;83;20952;-70
2022/02/17 00:12:35;;;;;;;16.87;12.47;;;;;;;3.78;76.21;100766.96;1721866;83;21375;-70
2022/02/17 00:15:01;;;;;;;15.35;12.07;;;;;;;3.78;76.37;100765.66;1722144;83;21921;-70
2022/02/17 00:17:28;;;;;;;19.98;13.25;;;;;;;3.79;76.54;100759.14;1721726;83;20893;-69
2022/02/17 00:19:56;;;;;;;22.35;12.93;;;;;;;3.78;76.63;100761.34;1721572;83;20901;-70
2022/02/17 00:22:22;;;;;;;17.77;13.22;;;;;;;3.79;76.76;100751.36;1721759;83;21027;-68
2022/02/17 00:24:49;;;;;;;19.27;12.35;;;;;;;3.81;76.86;100747.44;1722106;83;21389;-69
2022/02/17 00:27:18;;;;;;;20.30;13.53;;;;;;;3.81;76.90;100743.09;1721856;83;21235;-69
2022/02/17 00:29:44;;;;;;;19.90;11.80;;;;;;;3.83;76.98;100746.48;1721764;83;20944;-71
2022/02/17 00:32:12;;;;;;;20.50;12.07;;;;;;;3.83;77.04;100735.27;1721787;83;20983;-69
2022/02/17 00:34:39;;;;;;;16.75;12.47;;;;;;;3.83;77.17;100740.00;1721681;83;20921;-69
2022/02/17 00:37:06;;;;;;;17.32;12.60;;;;;;;3.82;77.19;100733.09;1721861;83;20959;-71
2022/02/17 00:39:34;;;;;;;25.27;12.65;;;;;;;3.82;77.27;100723.18;1721796;83;21092;-70
2022/02/17 00:42:02;;;;;;;19.12;12.78;;;;;;;3.82;77.37;100720.59;1721480;83;20865;-70
2022/02/17 00:44:30;;;;;;;20.40;12.47;;;;;;;3.81;77.46;100715.85;1721756;83;20944;-69
2022/02/17 00:46:56;;;;;;;19.62;12.80;;;;;;;3.80;77.59;100714.59;1721780;83;20988;-71
2022/02/17 00:49:26;;;;;;;20.35;13.65;;;;;;;3.80;77.71;100706.39;1721826;83;21504;-68
2022/02/17 00:51:54;;;;;;;17.85;14.00;;;;;;;3.79;77.83;100700.78;1721758;83;21242;-69
2022/02/17 00:54:23;;;;;;;21.02;13.38;;;;;;;3.78;77.88;100703.41;1721931;83;20971;-69
2022/02/17 00:56:49;;;;;;;19.35;12.60;;;;;;;3.78;78.00;100709.47;1721729;83;20967;-69
2022/02/17 00:59:16;;;;;;;20.43;12.68;;;;;;;3.77;78.07;100699.98;1722017;83;20967;-69
2022/02/17 01:01:46;;;;;;;18.32;13.15;;;;;;;3.76;78.20;100703.91;1721839;83;21015;-69
2022/02/17 01:04:13;;;;;;;17.75;13.00;;;;;;;3.75;78.15;100703.06;1721843;83;21155;-69
2022/02/17 01:06:42;;;;;;;17.07;12.05;;;;;;;3.74;78.26;100696.20;1721413;83;21065;-70
2022/02/17 01:09:10;;;;;;;17.73;12.18;;;;;;;3.74;78.21;100696.20;1719154;83;21050;-69
2022/02/17 01:11:37;;;;;;;23.05;14.23;;;;;;;3.73;78.24;100697.07;1708652;84;21454;-69
2022/02/17 01:14:05;;;;;;;18.82;14.10;;;;;;;3.73;78.34;100698.37;1708688;84;21501;-70
2022/02/17 01:16:32;;;;;;;21.05;13.93;;;;;;;3.72;78.36;100703.17;1708776;84;21195;-70
2022/02/17 01:19:00;;;;;;;18.70;13.20;;;;;;;3.72;78.47;100701.41;1708638;84;20937;-70
2022/02/17 01:21:27;;;;;;;21.57;14.58;;;;;;;3.72;78.52;100705.30;1679919;84;20981;-69
2022/02/17 01:23:54;;;;;;;19.45;12.98;;;;;;;3.72;78.64;100699.28;1708764;84;20960;-68
2022/02/17 01:26:21;;;;;;;18.67;13.25;;;;;;;3.74;78.76;100700.09;1708777;84;20929;-70
2022/02/17 01:28:50;;;;;;;20.37;14.60;;;;;;;3.74;78.81;100703.98;1708023;84;21378;-70
2022/02/17 01:31:18;;;;;;;20.00;14.55;;;;;;;3.75;78.91;100699.17;1708909;84;20996;-68
2022/02/17 01:33:47;;;;;;;20.15;13.75;;;;;;;3.77;78.92;100703.03;1707346;84;20992;-71
2022/02/17 01:36:15;;;;;;;18.27;13.15;;;;;;;3.78;78.90;100702.12;1708764;84;21016;-69
2022/02/17 01:38:44;;;;;;;22.15;15.30;;;;;;;3.79;78.95;100703.83;1708905;84;20901;-70
2022/02/17 01:41:11;;;;;;;24.40;16.02;;;;;;;3.79;78.95;100705.13;1680381;84;21169;-70
2022/02/17 01:43:40;;;;;;;21.37;13.98;;;;;;;3.81;78.98;100713.72;1708896;84;21359;-71
2022/02/17 01:46:07;;;;;;;22.13;15.05;;;;;;;3.81;78.99;100705.94;1708981;84;20937;-71
2022/02/17 01:48:34;;;;;;;20.20;14.93;;;;;;;3.83;78.99;100702.39;1709053;84;21414;-70
2022/02/17 01:51:01;;;;;;;21.10;15.38;;;;;;;3.85;79.01;100706.25;1708894;84;20944;-69
2022/02/17 01:53:30;;;;;;;21.80;14.68;;;;;;;3.87;78.98;100705.75;1708772;84;21229;-70
2022/02/17 01:55:57;;;;;;;23.27;14.53;;;;;;;3.88;79.00;100700.49;1708710;84;20980;-70
2022/02/17 01:58:28;;;;;;;23.00;15.55;;;;;;;3.89;79.04;100695.72;1708878;84;20992;-71
2022/02/17 02:00:57;;;;;;;22.75;16.30;;;;;;;3.91;79.09;100692.63;1709055;84;20948;-70
2022/02/17 02:03:23;;;;;;;22.77;14.55;;;;;;;3.91;79.08;100695.23;1709067;84;21114;-70
2022/02/17 02:05:52;;;;;;;20.55;13.72;;;;;;;3.93;79.13;100686.95;1707245;84;21150;-70
2022/02/17 02:08:21;;;;;;;23.85;15.20;;;;;;;3.95;79.19;100690.77;1708618;84;20891;-70
2022/02/17 02:10:48;;;;;;;22.48;15.58;;;;;;;3.95;79.25;100681.69;1702971;84;20988;-70
2022/02/17 02:13:16;;;;;;;20.17;14.07;;;;;;;3.94;79.34;100687.34;1701028;83;20956;-71
2022/02/17 02:15:47;;;;;;;21.42;13.95;;;;;;;3.95;79.46;100689.02;1700909;83;20972;-69
2022/02/17 02:18:14;;;;;;;26.42;16.02;;;;;;;3.99;79.47;100685.05;1680645;84;21150;-71
2022/02/17 02:20:46;;;;;;;23.02;14.73;;;;;;;4.00;79.57;100684.98;1701062;83;20996;-70
2022/02/17 02:23:13;;;;;;;22.05;14.98;;;;;;;4.03;79.62;100686.20;1680625;84;21011;-70
2022/02/17 02:25:44;;;;;;;22.80;13.95;;;;;;;4.04;79.68;100683.99;1700914;84;21363;-70
2022/02/17 02:28:20;;;;;;;22.05;15.23;;;;;;;4.05;79.72;100688.30;1700967;84;21418;-70
2022/02/17 02:30:48;;;;;;;21.85;14.50;;;;;;;4.07;79.74;100683.04;1700987;84;21120;-69
2022/02/17 02:33:15;;;;;;;22.17;15.80;;;;;;;4.07;79.81;100689.53;1700905;83;20992;-71
2022/02/17 02:35:43;;;;;;;19.45;14.10;;;;;;;4.08;79.92;100687.34;1700891;84;20985;-70
2022/02/17 02:38:13;;;;;;;24.87;15.15;;;;;;;4.07;80.03;100681.31;1701147;84;20909;-69
2022/02/17 02:40:40;;;;;;;22.98;15.15;;;;;;;4.08;80.09;100680.41;1700938;83;21440;-71
2022/02/17 02:43:11;;;;;;;24.45;15.72;;;;;;;4.08;80.24;100680.41;1701367;83;21160;-70
2022/02/17 02:45:39;;;;;;;21.25;14.87;;;;;;;4.09;80.30;100679.52;1700996;84;21411;-70
2022/02/17 02:48:09;;;;;;;21.35;14.83;;;;;;;4.09;80.46;100674.34;1700400;84;20937;-71
2022/02/17 02:50:36;;;;;;;19.67;14.13;;;;;;;4.10;80.51;100660.91;1701068;84;20961;-69
2022/02/17 02:53:03;;;;;;;25.23;14.78;;;;;;;4.11;80.73;100663.88;1701153;83;20980;-69
2022/02/17 02:55:30;;;;;;;22.02;15.08;;;;;;;4.12;80.78;100665.14;1700992;83;21113;-70
2022/02/17 02:57:58;;;;;;;22.93;14.93;;;;;;;4.13;80.92;100664.23;1700970;84;20930;-70
2022/02/17 03:00:26;;;;;;;19.35;13.53;;;;;;;4.13;81.06;100660.33;1700967;83;20997;-70
2022/02/17 03:02:52;;;;;;;19.27;14.85;;;;;;;4.14;81.14;100651.66;1701207;84;21427;-69
2022/02/17 03:05:19;;;;;;;23.57;15.98;;;;;;;4.15;81.35;100649.91;1700945;84;20913;-70
2022/02/17 03:07:47;;;;;;;18.67;12.85;;;;;;;4.15;81.34;100650.75;1700913;84;21583;-71
2022/02/17 03:10:16;;;;;;;17.15;12.43;;;;;;;4.17;81.48;100637.73;1700764;83;21470;-69
2022/02/17 03:12:43;;;;;;;19.15;13.18;;;;;;;4.18;81.58;100642.05;1701019;84;21016;-71
2022/02/17 03:15:10;;;;;;;18.80;12.60;;;;;;;4.17;81.64;100631.25;1701063;84;20933;-70
2022/02/17 03:17:38;;;;;;;17.48;13.43;;;;;;;4.18;81.72;100641.17;1700962;84;20909;-70
2022/02/17 03:20:11;;;;;;;20.57;14.70;;;;;;;4.17;81.77;100634.30;1700972;84;21155;-70
2022/02/17 03:22:38;;;;;;;19.37;14.25;;;;;;;4.18;81.82;100630.79;1701007;83;20996;-69
2022/02/17 03:25:09;;;;;;;20.25;13.15;;;;;;;4.19;81.88;100625.56;1700967;83;20941;-71
2022/02/17 03:27:36;;;;;;;18.75;12.37;;;;;;;4.20;81.88;100618.16;1701093;84;21466;-72
2022/02/17 03:30:07;;;;;;;15.25;10.98;;;;;;;4.21;81.88;100606.89;1698625;84;20961;-70
2022/02/17 03:32:35;;;;;;;16.87;11.45;;;;;;;4.24;81.83;100621.52;1701105;83;21108;-70
2022/02/17 03:35:05;;;;;;;16.82;11.63;;;;;;;4.25;81.81;100605.89;1700936;83;20937;-70
2022/02/17 03:37:32;;;;;;;17.95;12.03;;;;;;;4.28;81.78;100603.18;1701104;83;20944;-70
2022/02/17 03:39:59;;;;;;;18.35;11.57;;;;;;;4.30;81.75;100600.09;1700742;84;20981;-71
2022/02/17 03:42:34;;;;;;;17.95;12.35;;;;;;;4.31;81.71;100600.50;1680171;83;21060;-71
2022/02/17 03:45:03;;;;;;;16.80;12.55;;;;;;;4.34;81.63;100596.48;1700907;84;21129;-71
2022/02/17 03:47:32;;;;;;;23.87;13.90;;;;;;;4.36;81.52;100592.55;1700811;84;20905;-70
2022/02/17 03:50:06;;;;;;;16.97;12.13;;;;;;;4.38;81.48;100593.34;1699071;84;20942;-69
2022/02/17 03:52:37;;;;;;;17.85;12.23;;;;;;;4.41;81.34;100589.79;1700896;84;21000;-71
2022/02/17 03:55:12;;;;;;;17.75;11.38;;;;;;;4.42;81.26;100578.03;1700841;83;20874;-69
2022/02/17 03:57:40;;;;;;;15.45;11.28;;;;;;;4.43;81.11;100577.15;1700804;83;21159;-70
2022/02/17 04:00:08;;;;;;;14.00;11.00;;;;;;;4.44;80.97;100574.09;1701023;84;21462;-71
2022/02/17 04:02:37;;;;;;;19.92;11.93;;;;;;;4.44;80.93;100568.91;1699869;84;20921;-70
2022/02/17 04:05:05;;;;;;;13.65;10.90;;;;;;;4.42;80.82;100574.14;1700804;84;20949;-71
2022/02/17 04:07:35;;;;;;;21.25;14.20;;;;;;;4.42;80.82;100561.61;1700830;84;20985;-71
2022/02/17 04:10:05;;;;;;;19.32;13.75;;;;;;;4.43;80.73;100564.62;1699246;83;22204;-70
2022/02/17 04:12:33;;;;;;;16.32;11.38;;;;;;;4.42;80.70;100565.05;1700715;83;21553;-71
2022/02/17 04:15:02;;;;;;;16.25;11.18;;;;;;;4.41;80.56;100551.69;1700794;84;20890;-71
2022/02/17 04:17:29;;;;;;;17.17;11.50;;;;;;;4.40;80.31;100552.57;1700972;84;20909;-70
2022/02/17 04:19:59;;;;;;;14.78;12.15;;;;;;;4.38;80.23;100550.94;1700485;84;21422;-71
2022/02/17 04:22:41;;;;;;;17.07;11.43;;;;;;;4.34;80.11;100545.87;1699412;84;22018;-68
2022/02/17 04:25:16;;;;;;;16.70;12.28;;;;;;;4.33;80.07;100544.61;1701209;84;21008;-71
2022/02/17 04:27:44;;;;;;;18.02;12.20;;;;;;;4.30;80.03;100546.88;1700903;83;21530;-69
2022/02/17 04:30:11;;;;;;;18.30;12.47;;;;;;;4.28;80.01;100540.05;1701187;84;20870;-70
2022/02/17 04:32:39;;;;;;;19.27;12.18;;;;;;;4.23;79.93;100533.72;1700859;84;21367;-69
2022/02/17 04:35:06;;;;;;;17.73;11.38;;;;;;;4.19;79.94;100533.42;1700918;84;21163;-71
2022/02/17 04:37:33;;;;;;;17.12;12.70;;;;;;;4.15;80.01;100526.19;1700791;84;21501;-70
2022/02/17 04:40:00;;;;;;;18.90;13.08;;;;;;;4.13;80.09;100521.95;1701085;84;20909;-70
2022/02/17 04:42:32;;;;;;;15.63;12.28;;;;;;;4.11;80.23;100512.08;1700786;84;21533;-70
2022/02/17 04:45:04;;;;;;;18.30;11.75;;;;;;;4.07;80.39;100504.87;1700825;84;21039;-69
2022/02/17 04:47:31;;;;;;;18.70;12.05;;;;;;;4.05;80.58;100507.96;1700777;83;21507;-70
2022/02/17 04:49:59;;;;;;;15.85;11.28;;;;;;;4.06;80.70;100503.61;1700816;84;20909;-70
2022/02/17 04:52:25;;;;;;;18.57;11.90;;;;;;;4.06;80.81;100494.53;1700887;84;20941;-69
2022/02/17 04:54:52;;;;;;;15.85;11.75;;;;;;;4.03;80.87;100485.11;1700854;84;20905;-69
2022/02/17 04:57:21;;;;;;;15.90;11.57;;;;;;;4.03;81.03;100480.38;1700960;84;21379;-70
2022/02/17 04:59:47;;;;;;;17.30;11.97;;;;;;;4.01;81.11;100475.23;1680602;84;21547;-71
2022/02/17 05:02:15;;;;;;;19.98;11.70;;;;;;;4.01;81.23;100478.28;1700819;83;21004;-69
2022/02/17 05:04:46;;;;;;;16.55;11.88;;;;;;;3.99;81.38;100477.03;1669797;84;21430;-71
2022/02/17 05:07:18;;;;;;;16.42;11.25;;;;;;;3.99;81.56;100477.03;1699119;84;21411;-72
2022/02/17 05:09:45;;;;;;;18.42;12.28;;;;;;;3.98;81.63;100473.19;1700894;84;20964;-70
2022/02/17 05:12:13;;;;;;;18.42;11.45;;;;;;;3.98;81.84;100477.08;1707952;84;21506;-71
2022/02/17 05:14:41;;;;;;;18.85;12.45;;;;;;;3.97;81.90;100478.83;1708590;84;20857;-72
2022/02/17 05:17:09;;;;;;;18.52;13.03;;;;;;;3.96;81.98;100468.08;1708664;84;20968;-72
2022/02/17 05:19:37;;;;;;;18.25;11.73;;;;;;;3.98;81.99;100465.41;1708738;84;20909;-70
2022/02/17 05:25:09;;;;;;;17.73;11.63;;;;;;;4.05;81.95;100452.17;1797739;79;22650;-72
2022/02/17 05:27:38;;;;;;;18.52;12.58;;;;;;;4.01;81.92;100442.80;1755687;80;20888;-71
2022/02/17 05:30:22;;;;;;;18.07;12.37;;;;;;;4.03;81.73;100439.70;1757600;80;21149;-71
2022/02/17 05:32:58;;;;;;;19.07;11.35;;;;;;;4.05;81.69;100446.98;1758252;80;21004;-71
2022/02/17 05:35:28;;;;;;;17.20;10.98;;;;;;;4.07;81.57;100437.83;1727417;80;20936;-72
2022/02/17 05:37:57;;;;;;;17.48;12.73;;;;;;;4.10;81.53;100424.30;1755093;80;20963;-70
2022/02/17 05:40:29;;;;;;;15.98;11.10;;;;;;;4.13;81.36;100429.83;1756972;80;20960;-71
2022/02/17 05:42:56;;;;;;;17.15;12.33;;;;;;;4.15;81.29;100426.73;1758531;80;21116;-72
2022/02/17 05:45:23;;;;;;;16.70;12.43;;;;;;;4.19;81.17;100419.69;1758220;80;20999;-71
2022/02/17 05:47:50;;;;;;;20.12;11.78;;;;;;;4.21;81.11;100417.42;1758247;80;21374;-70
2022/02/17 05:50:18;;;;;;;18.27;11.93;;;;;;;4.24;80.83;100410.81;1758102;80;20931;-71
2022/02/17 05:52:46;;;;;;;17.60;11.30;;;;;;;4.27;80.74;100401.63;1758524;80;20880;-72
2022/02/17 05:55:13;;;;;;;13.35;10.15;;;;;;;4.31;80.55;100395.43;1758251;80;21139;-72
2022/02/17 05:57:42;;;;;;;16.07;11.30;;;;;;;4.34;80.33;100403.09;1758145;80;21327;-70
2022/02/17 06:00:10;;;;;;;17.20;11.45;;;;;;;4.38;80.09;100401.66;1758434;80;20896;-71
2022/02/17 06:02:41;;;;;;;16.97;12.13;;;;;;;4.40;79.88;100404.59;1758491;80;20881;-71
2022/02/17 06:05:09;;;;;;;18.23;11.93;;;;;;;4.44;79.63;100398.38;1758174;80;20936;-70
2022/02/17 06:07:36;;;;;;;18.90;12.03;;;;;;;4.45;79.58;100388.87;1758616;80;21763;-72
2022/02/17 06:10:05;;;;;;;13.95;10.93;;;;;;;4.46;79.36;100390.08;1758084;80;20912;-70
2022/02/17 06:12:35;;;;;;;22.05;14.25;;;;;;;4.46;79.10;100383.59;1758406;80;21648;-71
2022/02/17 06:15:02;;;;;;;17.00;10.68;;;;;;;4.48;78.88;100375.75;1739524;81;20924;-72
2022/02/17 06:17:31;;;;;;;15.13;11.73;;;;;;;4.50;78.76;100368.75;1758182;80;20919;-72
2022/02/17 06:19:58;;;;;;;17.30;11.85;;;;;;;4.53;78.86;100372.52;1758249;80;21116;-71
2022/02/17 06:22:25;;;;;;;15.68;11.50;;;;;;;4.57;78.65;100342.93;1758089;80;21003;-71
2022/02/17 06:24:53;;;;;;;16.62;11.22;;;;;;;4.60;78.44;100362.27;1746915;80;20995;-71
2022/02/17 06:27:20;;;;;;;17.87;11.40;;;;;;;4.63;78.34;100352.24;1744707;81;20893;-71
2022/02/17 06:29:47;;;;;;;18.00;11.43;;;;;;;4.65;78.35;100353.87;1745420;81;20944;-70
2022/02/17 06:32:13;;;;;;;19.12;12.58;;;;;;;4.67;78.19;100347.30;1745350;81;21105;-71
2022/02/17 06:34:40;;;;;;;19.05;12.85;;;;;;;4.70;78.04;100340.23;1744960;81;20932;-70
2022/02/17 06:37:07;;;;;;;20.97;13.58;;;;;;;4.71;77.62;100343.67;1744916;81;21304;-71
2022/02/17 06:39:35;;;;;;;23.32;13.72;;;;;;;4.73;77.68;100337.97;1744580;82;21393;-71
2022/02/17 06:42:03;;;;;;;20.27;13.50;;;;;;;4.72;77.46;100329.33;1744816;80;21452;-71
2022/02/17 06:44:31;;;;;;;16.48;11.65;;;;;;;4.73;77.21;100331.47;1744797;80;21087;-69
2022/02/17 06:46:58;;;;;;;18.73;11.78;;;;;;;4.74;77.12;100323.62;1744730;81;20936;-70
2022/02/17 06:49:28;;;;;;;16.05;10.90;;;;;;;4.74;76.88;100309.34;1744721;81;20948;-70
2022/02/17 06:51:54;;;;;;;14.33;11.33;;;;;;;4.76;76.87;100311.88;1744810;82;20907;-71
2022/02/17 06:54:22;;;;;;;16.62;11.03;;;;;;;4.75;76.81;100303.22;1744557;81;20924;-70
2022/02/17 06:56:51;;;;;;;17.00;11.70;;;;;;;4.76;76.39;100311.88;1744571;81;21457;-72
2022/02/17 06:59:18;;;;;;;17.23;10.60;;;;;;;4.78;76.53;100313.97;1744499;80;21418;-69
2022/02/17 07:01:45;;;;;;;17.23;11.45;;;;;;;4.80;76.22;100297.83;1744832;80;20928;-69
2022/02/17 07:04:13;;;;;;;17.20;10.72;;;;;;;4.82;76.07;100309.47;1744551;81;20944;-69
2022/02/17 07:06:40;;;;;;;16.50;11.80;;;;;;;4.81;75.86;100301.30;1744971;81;20873;-70
2022/02/17 07:09:07;;;;;;;16.70;10.28;;;;;;;4.83;75.88;100294.29;1744540;81;21595;-70
2022/02/17 07:11:35;;;;;;;17.85;11.30;;;;;;;4.84;75.76;100296.80;1744483;81;20932;-70
2022/02/17 07:14:02;;;;;;;16.12;10.88;;;;;;;4.86;75.60;100304.55;1744605;81;20904;-69
2022/02/17 07:16:29;;;;;;;16.02;11.95;;;;;;;4.88;75.49;100289.73;1744907;82;21008;-70
2022/02/17 07:18:56;;;;;;;19.87;12.55;;;;;;;4.90;75.28;100285.33;1744680;81;21007;-70
2022/02/17 07:21:24;;;;;;;18.57;11.35;;;;;;;4.91;75.28;100287.00;1744503;81;21284;-70
2022/02/17 07:23:51;;;;;;;20.15;12.55;;;;;;;4.92;75.03;100293.45;1744586;80;21513;-71
2022/02/17 07:26:18;;;;;;;17.77;12.63;;;;;;;4.94;75.00;100290.79;1744482;81;20924;-69
2022/02/17 07:28:45;;;;;;;22.10;11.90;;;;;;;4.95;74.98;100287.27;1744774;81;21011;-70
2022/02/17 07:31:13;;;;;;;17.90;11.73;;;;;;;4.94;74.84;100293.39;1744632;81;20858;-70
2022/02/17 07:33:40;;;;;;;21.35;11.50;;;;;;;4.93;74.91;100291.22;1744596;81;21549;-71
2022/02/17 07:36:08;;;;;;;22.77;12.33;;;;;;;4.97;74.85;100284.16;1744595;80;20933;-71
2022/02/17 07:38:35;;;;;;;16.70;11.15;;;;;;;5.01;74.72;100280.98;1744514;81;20877;-72
2022/02/17 07:41:02;;;;;;;23.50;13.62;;;;;;;5.02;74.46;100287.39;1744568;82;20885;-73
2022/02/17 07:43:30;;;;;;;21.70;11.90;;;;;;;5.02;74.27;100280.06;1744601;81;21542;-73
2022/02/17 07:46:00;;;;;;;20.75;12.18;;;;;;;5.03;74.11;100272.67;1744778;82;21188;-73
2022/02/17 07:48:27;;;;;;;19.15;11.75;;;;;;;5.04;74.19;100271.28;1744806;80;20980;-73
2022/02/17 07:50:56;;;;;;;17.60;11.65;;;;;;;;;;1744596;81;21379;-73
2022/02/17 07:53:23;;;;;;;18.48;11.57;;;;;;;5.07;73.89;100262.50;1744764;80;21323;-72
2022/02/17 07:55:50;;;;;;;20.60;11.30;;;;;;;5.12;73.82;100266.61;1744758;80;20877;-72
2022/02/17 07:58:17;;;;;;;21.23;10.63;;;;;;;5.13;73.42;100254.45;1744720;81;21151;-73
2022/02/17 08:00:45;;;;;;;18.92;12.73;;;;;;;5.19;73.64;100259.39;1744489;81;21407;-71
2022/02/17 08:03:13;;;;;;;17.00;11.05;;;;;;;5.24;73.34;100256.12;1744826;81;20901;-72
2022/02/17 08:05:40;;;;;;;16.60;10.05;;;;;;;5.29;73.30;100259.82;1744491;80;21010;-72
2022/02/17 08:08:10;;;;;;;12.80;8.90;;;;;;;5.32;72.98;100237.61;1744733;81;21011;-72
2022/02/17 08:10:37;;;;;;;19.10;11.65;;;;;;;5.38;72.66;100236.01;1744515;81;21110;-73
2022/02/17 08:13:06;;;;;;;21.42;12.10;;;;;;;5.44;72.74;100234.91;1744560;80;20877;-72
2022/02/17 08:15:33;;;;;;;16.05;11.12;;;;;;;5.48;72.27;100238.59;1744456;80;20885;-73
2022/02/17 08:18:03;;;;;;;13.83;10.15;;;;;;;5.51;71.61;100226.74;1744520;81;20952;-72
2022/02/17 08:20:31;;;;;;;14.85;9.58;;;;;;;5.54;71.76;100229.69;1744743;82;20932;-72
2022/02/17 08:22:58;;;;;;;16.05;10.70;;;;;;;5.58;71.52;100226.87;1744485;81;21114;-73
2022/02/17 08:25:25;;;;;;;16.65;10.98;;;;;;;5.62;71.21;100236.66;1753619;80;20888;-70
2022/02/17 08:27:52;;;;;;;15.50;10.30;;;;;;;5.67;70.84;100232.55;1757528;81;20924;-72
2022/02/17 08:30:19;;;;;;;12.85;9.48;;;;;;;5.72;70.68;100231.91;1757947;81;21456;-73
2022/02/17 08:32:47;;;;;;;17.90;9.90;;;;;;;5.78;70.56;100211.65;1757780;81;21057;-72
2022/02/17 08:35:15;;;;;;;18.15;11.50;;;;;;;5.89;70.19;100219.39;1758144;80;21163;-76
2022/02/17 08:37:42;;;;;;;13.68;10.03;;;;;;;5.99;70.16;100212.88;1758216;80;20950;-75
2022/02/17 08:40:10;;;;;;;18.32;10.25;;;;;;;6.09;69.12;100197.65;1757818;81;20955;-75
2022/02/17 08:42:38;;;;;;;16.15;9.65;;;;;;;6.15;68.96;100198.20;1757757;81;20975;-75
2022/02/17 08:45:05;;;;;;;15.35;10.05;;;;;;;6.23;69.15;100193.47;1757807;80;21373;-75
2022/02/17 08:47:32;;;;;;;12.47;9.03;;;;;;;6.27;68.25;100194.17;1757857;81;21757;-74
2022/02/17 08:50:00;;;;;;;12.15;8.98;;;;;;;6.35;68.11;100191.18;1757878;81;21434;-72
2022/02/17 08:52:26;;;;;;;14.40;9.23;;;;;;;6.41;67.23;100193.48;1758083;80;21492;-71
2022/02/17 08:54:53;;;;;;;15.20;9.40;;;;;;;6.54;67.32;100185.91;1758016;80;21082;-73
2022/02/17 08:57:20;;;;;;;16.05;9.55;;;;;;;6.69;67.08;100166.03;1758158;80;20892;-74
2022/02/17 08:59:47;;;;;;;13.62;9.70;;;;;;;6.77;66.53;100179.52;1757802;81;21116;-76
2022/02/17 09:02:14;;;;;;;17.85;11.15;;;;;;;6.89;66.44;100161.93;1757960;80;20975;-76
2022/02/17 09:04:41;;;;;;;17.52;9.83;;;;;;;6.96;65.52;100168.97;1757822;81;20916;-75
2022/02/17 09:07:08;;;;;;;12.65;9.13;;;;;;;7.09;65.58;100145.71;1757872;81;20908;-73
2022/02/17 09:09:35;;;;;;;13.83;10.98;;;;;;;7.36;64.93;100149.90;1757867;81;20971;-74
2022/02/17 09:12:02;;;;;;;14.47;9.00;;;;;;;7.55;64.11;100164.94;1757778;81;21145;-76
2022/02/17 09:14:29;;;;;;;14.20;9.98;;;;;;;7.56;63.14;100145.77;1757808;81;21385;-76
2022/02/17 09:16:56;;;;;;;18.07;10.88;;;;;;;7.51;63.45;100137.33;1758097;81;20959;-77
2022/02/17 09:19:23;;;;;;;15.72;9.28;;;;;;;7.47;63.55;100135.37;1757704;80;21385;-76
2022/02/17 09:21:50;;;;;;;16.25;10.23;;;;;;;7.43;63.68;100131.71;1757852;81;20963;-76
2022/02/17 09:24:17;;;;;;;15.93;9.78;;;;;;;7.40;63.42;100129.25;1756470;80;21116;-76
2022/02/17 09:26:47;;;;;;;13.98;9.68;;;;;;;7.35;63.52;100132.58;1744339;81;20885;-74
2022/02/17 09:29:15;;;;;;;13.60;9.75;;;;;;;7.31;63.79;100134.50;1744433;81;20936;-74
2022/02/17 09:31:41;;;;;;;12.82;9.25;;;;;;;7.29;63.96;100123.31;1744462;81;20952;-75
2022/02/17 09:34:11;;;;;;;16.75;9.60;;;;;;;7.28;63.54;100114.28;1744520;81;21398;-74
2022/02/17 09:36:38;;;;;;;13.65;9.20;;;;;;;7.24;63.39;100101.86;1744551;81;21763;-74
2022/02/17 09:39:05;;;;;;;15.18;8.90;;;;;;;7.21;63.29;100102.88;1744387;81;20897;-78
2022/02/17 09:41:32;;;;;;;18.10;10.63;;;;;;;7.23;63.22;100119.28;1745534;81;20865;-75
2022/02/17 09:44:06;;;;;;;16.35;10.10;;;;;;;7.30;63.34;100103.31;1744798;81;21042;-77
2022/02/17 09:46:33;;;;;;;13.68;9.25;;;;;;;7.35;62.79;100095.59;1744509;81;20893;-76
2022/02/17 09:49:03;;;;;;;15.68;9.88;;;;;;;7.41;62.98;100093.12;1744513;81;21157;-75
2022/02/17 09:51:31;;;;;;;13.22;7.95;;;;;;;7.47;62.51;100093.63;1744484;81;21012;-77
2022/02/17 09:53:59;;;;;;;16.05;10.25;;;;;;;7.51;62.51;100078.63;1744406;81;20909;-76
2022/02/17 09:56:25;;;;;;;13.40;9.03;;;;;;;7.53;61.99;100079.38;1744459;81;20924;-76
2022/02/17 09:58:53;;;;;;;15.50;10.43;;;;;;;7.55;61.97;100065.78;1744610;81;20874;-76
2022/02/17 10:01:26;;;;;;;15.43;10.98;;;;;;;7.58;61.94;100046.06;1744429;82;21569;-76
2022/02/17 10:03:51;;;;;;;22.67;12.20;;;;;;;7.62;62.13;100042.33;1744455;81;20893;-76
2022/02/17 10:06:20;;;;;;;19.85;11.70;;;;;;;7.65;61.84;100033.04;1754727;80;20880;-77
2022/02/17 10:08:47;;;;;;;31.27;13.68;;;;;;;7.74;61.56;100024.31;1780647;80;20986;-76
2022/02/17 10:11:28;;;;;;;14.78;9.95;;;;;;;7.80;61.46;100023.49;1780696;80;21010;-76
2022/02/17 10:14:09;;;;;;;18.48;11.03;;;;;;;7.89;61.08;100011.20;1780598;79;21187;-78
2022/02/17 10:17:09;;;;;;;22.73;11.35;;;;;;;8.07;60.99;99996.66;1743299;81;21066;-76
2022/02/17 10:19:47;;;;;;;13.50;9.78;;;;;;;8.25;60.39;99991.66;1691740;84;21165;-76
2022/02/17 10:22:19;;;;;;;15.43;10.28;;;;;;;8.41;59.84;99991.59;1691889;84;20908;-77
2022/02/17 10:24:52;;;;;;;16.42;11.93;;;;;;;8.47;59.28;99989.92;1692363;84;21052;-75
2022/02/17 10:27:27;;;;;;;17.55;10.03;;;;;;;8.58;59.44;99980.56;1695614;84;21874;-78
2022/02/17 10:30:09;;;;;;;13.90;8.00;;;;;;;8.67;58.84;99976.92;1695415;84;20878;-75
2022/02/17 10:32:56;;;;;;;13.98;8.35;;;;;;;8.84;57.81;99962.78;1695433;84;20992;-75
2022/02/17 10:35:25;;;;;;;14.60;9.48;;;;;;;8.92;57.32;99959.69;1695415;84;20917;-76
2022/02/17 10:37:57;;;;;;;11.78;8.38;;;;;;;8.89;57.41;99965.96;1695540;84;20893;-77
2022/02/17 10:40:33;;;;;;;12.15;8.73;;;;;;;8.85;57.16;99953.18;1695459;84;21143;-78
2022/02/17 10:43:12;;;;;;;11.10;8.48;;;;;;;8.79;57.09;99949.64;1695456;84;20945;-74
2022/02/17 10:45:42;;;;;;;15.55;8.85;;;;;;;8.76;57.55;99952.43;1695351;84;20965;-76
2022/02/17 10:48:26;;;;;;;17.80;9.38;;;;;;;8.74;57.67;99943.40;1694517;84;20945;-78
2022/02/17 10:51:13;;;;;;;;;;;;;;;8.75;57.85;99933.77;1697988;84;21521;-77
2022/02/17 10:53:45;;;;;;;15.28;8.48;;;;;;;8.74;57.92;99917.26;1695381;84;21314;-77
2022/02/17 10:56:15;;;;;;;13.58;9.53;;;;;;;8.72;58.03;99911.28;1736775;81;20979;-75
2022/02/17 10:58:50;;;;;;;13.88;8.48;;;;;;;8.74;57.96;99904.19;1722949;82;21724;-76
2022/02/17 11:01:14;;;;;;;12.58;8.60;;;;;;;8.76;58.11;99902.31;1722163;82;20925;-77
2022/02/17 11:03:41;;;;;;;11.03;7.87;;;;;;;8.81;58.01;99899.41;1722931;82;20889;-77
2022/02/17 11:06:11;;;;;;;13.03;9.68;;;;;;;8.82;58.06;99895.36;1722895;82;21458;-75
2022/02/17 11:08:40;;;;;;;11.78;7.85;;;;;;;8.82;57.98;99902.37;1722747;82;20929;-77
2022/02/17 11:11:08;;;;;;;12.88;8.50;;;;;;;8.83;58.32;99900.15;1723208;82;21029;-78
2022/02/17 11:13:34;;;;;;;11.88;7.85;;;;;;;8.82;58.41;99889.30;1722832;83;21457;-78
2022/02/17 11:16:06;;;;;;;13.62;8.83;;;;;;;8.81;58.50;99878.49;1722847;82;20885;-75
2022/02/17 11:18:33;;;;;;;10.75;7.78;;;;;;;8.79;58.52;99869.43;1723033;82;20924;-79
2022/02/17 11:21:02;;;;;;;14.87;8.48;;;;;;;8.77;58.02;99871.30;1722846;82;21339;-77
2022/02/17 11:23:34;;;;;;;16.17;8.75;;;;;;;8.77;58.34;99867.38;1722826;82;20936;-79
2022/02/17 11:26:02;;;;;;;14.00;9.28;;;;;;;8.79;58.10;99851.13;1716060;82;20917;-77
2022/02/17 11:28:35;;;;;;;11.35;9.18;;;;;;;8.81;57.85;99855.80;1711121;84;20921;-79